createdAt,value
2019-05-16T00:00:40.638Z,8.30
2019-05-16T00:02:48.100Z,8.30
2019-05-16T00:04:53.660Z,8.30
2019-05-16T00:06:59.161Z,8.30
2019-05-16T00:09:08.011Z,8.30
2019-05-16T00:11:13.629Z,8.30
2019-05-16T00:13:19.145Z,8.40
2019-05-16T00:15:24.751Z,8.40
2019-05-16T00:17:30.261Z,8.30
2019-05-16T00:19:38.022Z,8.30
2019-05-16T00:21:43.072Z,8.30
2019-05-16T00:23:48.821Z,8.40
2019-05-16T00:25:55.231Z,8.40
2019-05-16T00:28:00.850Z,8.40
2019-05-16T00:30:08.861Z,8.40
2019-05-16T00:32:14.472Z,8.30
2019-05-16T00:34:20.056Z,8.40
2019-05-16T00:36:27.683Z,8.30
2019-05-16T00:38:32.768Z,8.30
2019-05-16T00:40:38.458Z,8.30
2019-05-16T00:42:43.973Z,8.30
2019-05-16T00:44:49.480Z,8.30
2019-05-16T00:46:55.002Z,8.30
2019-05-16T00:49:00.520Z,8.30
2019-05-16T00:51:07.804Z,8.30
2019-05-16T00:53:13.304Z,8.30
2019-05-16T00:55:18.898Z,8.30
2019-05-16T00:57:24.649Z,8.30
2019-05-16T00:59:31.573Z,8.40
2019-05-16T01:01:38.972Z,8.30
2019-05-16T01:03:45.640Z,8.40
2019-05-16T01:05:51.144Z,8.30
2019-05-16T01:07:58.465Z,8.30
2019-05-16T01:10:05.513Z,8.30
2019-05-16T01:12:11.093Z,8.30
2019-05-16T01:14:17.730Z,8.20
2019-05-16T01:16:23.381Z,8.20
2019-05-16T01:18:28.991Z,8.20
2019-05-16T01:20:34.977Z,8.20
2019-05-16T01:22:40.562Z,8.20
2019-05-16T01:24:46.150Z,8.20
2019-05-16T01:26:51.665Z,8.30
2019-05-16T01:28:57.704Z,8.30
2019-05-16T01:31:03.341Z,8.30
2019-05-16T01:33:09.057Z,8.30
2019-05-16T01:35:14.704Z,8.30
2019-05-16T01:37:20.288Z,8.30
2019-05-16T01:39:25.816Z,8.30
2019-05-16T01:41:31.320Z,8.30
2019-05-16T01:43:37.901Z,8.30
2019-05-16T01:45:43.441Z,8.30
2019-05-16T01:47:48.962Z,8.30
2019-05-16T01:49:54.487Z,8.30
2019-05-16T01:52:00.014Z,8.30
2019-05-16T01:54:05.694Z,8.30
2019-05-16T01:56:11.282Z,8.30
2019-05-16T01:58:19.908Z,8.30
2019-05-16T02:00:25.885Z,8.30
2019-05-16T02:02:31.184Z,8.30
2019-05-16T02:04:38.018Z,8.40
2019-05-16T02:06:51.674Z,8.40
2019-05-16T02:08:50.959Z,8.30
2019-05-16T02:10:58.388Z,8.40
2019-05-16T02:13:03.707Z,8.40
2019-05-16T02:15:09.465Z,8.40
2019-05-16T02:17:14.987Z,8.40
2019-05-16T02:19:20.589Z,8.40
2019-05-16T02:21:26.115Z,8.40
2019-05-16T02:23:31.662Z,8.40
2019-05-16T02:25:38.186Z,8.40
2019-05-16T02:27:44.322Z,8.40
2019-05-16T02:29:50.678Z,8.50
2019-05-16T02:31:56.438Z,8.50
2019-05-16T02:34:04.875Z,8.60
2019-05-16T02:36:10.937Z,8.50
2019-05-16T02:38:16.312Z,8.50
2019-05-16T02:40:23.690Z,8.50
2019-05-16T02:42:30.947Z,8.50
2019-05-16T02:44:36.452Z,8.50
2019-05-16T02:46:42.183Z,8.50
2019-05-16T02:48:51.552Z,8.40
2019-05-16T02:50:55.998Z,8.40
2019-05-16T02:53:01.821Z,8.40
2019-05-16T02:55:11.285Z,8.40
2019-05-16T02:57:14.913Z,8.40
2019-05-16T02:59:20.832Z,8.50
2019-05-16T03:01:26.511Z,8.50
2019-05-16T03:03:32.610Z,8.50
2019-05-16T03:05:41.603Z,8.50
2019-05-16T03:07:47.565Z,8.50
2019-05-16T03:09:55.006Z,8.50
2019-05-16T03:12:02.231Z,8.50
2019-05-16T03:14:07.819Z,8.50
2019-05-16T03:16:15.598Z,8.50
2019-05-16T03:18:24.140Z,8.50
2019-05-16T03:20:31.516Z,8.60
2019-05-16T03:22:40.606Z,8.60
2019-05-16T03:24:45.281Z,8.50
2019-05-16T03:26:51.469Z,8.50
2019-05-16T03:28:57.103Z,8.60
2019-05-16T03:31:05.122Z,8.50
2019-05-16T03:33:19.508Z,8.50
2019-05-16T03:35:17.478Z,8.50
2019-05-16T03:37:25.210Z,8.50
2019-05-16T03:39:31.468Z,8.60
2019-05-16T03:41:37.144Z,8.60
2019-05-16T03:43:42.657Z,8.50
2019-05-16T03:45:51.841Z,8.60
2019-05-16T03:47:55.397Z,8.60
2019-05-16T03:50:00.998Z,8.70
2019-05-16T03:52:06.577Z,8.60
2019-05-16T03:54:12.651Z,8.60
2019-05-16T03:56:21.475Z,8.60
2019-05-16T03:58:25.486Z,8.70
2019-05-16T04:00:54.850Z,8.60
2019-05-16T04:03:01.212Z,8.70
2019-05-16T04:05:07.200Z,8.70
2019-05-16T04:07:12.729Z,8.70
2019-05-16T04:09:20.862Z,8.80
2019-05-16T04:11:25.402Z,9.00
2019-05-16T04:13:31.827Z,9.10
2019-05-16T04:15:40.600Z,9.20
2019-05-16T04:17:44.558Z,9.20
2019-05-16T04:19:50.886Z,9.10
2019-05-16T04:21:56.618Z,9.20
2019-05-16T04:24:02.131Z,9.10
2019-05-16T04:26:07.672Z,9.00
2019-05-16T04:28:14.822Z,9.00
2019-05-16T04:30:21.978Z,9.10
2019-05-16T04:32:27.754Z,9.10
2019-05-16T04:34:33.302Z,9.00
2019-05-16T04:36:40.679Z,9.00
2019-05-16T04:38:46.871Z,9.00
2019-05-16T04:40:52.506Z,9.00
2019-05-16T04:43:01.024Z,9.10
2019-05-16T04:45:11.924Z,9.10
2019-05-16T04:47:21.017Z,9.10
2019-05-16T04:49:26.928Z,9.00
2019-05-16T04:51:32.482Z,9.10
2019-05-16T04:53:38.024Z,9.10
2019-05-16T04:55:43.559Z,9.00
2019-05-16T04:57:51.070Z,8.90
2019-05-16T04:59:56.265Z,8.90
2019-05-16T05:02:02.382Z,8.90
2019-05-16T05:04:14.284Z,8.90
2019-05-16T05:06:15.257Z,8.90
2019-05-16T05:08:21.938Z,8.90
2019-05-16T05:10:31.024Z,8.90
2019-05-16T05:12:35.388Z,8.90
2019-05-16T05:14:41.627Z,8.90
2019-05-16T05:16:47.352Z,8.90
2019-05-16T05:18:52.858Z,9.00
2019-05-16T05:21:00.924Z,8.90
2019-05-16T05:23:05.525Z,8.90
2019-05-16T05:25:11.289Z,8.80
2019-05-16T05:27:16.819Z,9.00
2019-05-16T05:29:22.408Z,9.00
2019-05-16T05:31:34.481Z,9.00
2019-05-16T05:33:35.246Z,9.00
2019-05-16T05:35:40.891Z,8.90
2019-05-16T05:37:46.381Z,9.00
2019-05-16T05:39:51.909Z,9.00
2019-05-16T05:41:59.911Z,9.10
2019-05-16T05:44:04.722Z,9.00
2019-05-16T05:46:11.224Z,9.00
2019-05-16T05:48:17.024Z,9.10
2019-05-16T05:50:22.748Z,9.10
2019-05-16T05:52:30.343Z,9.20
2019-05-16T05:54:35.496Z,9.30
2019-05-16T05:56:41.114Z,9.30
2019-05-16T05:58:46.623Z,9.30
2019-05-16T06:00:52.597Z,9.20
2019-05-16T06:03:00.069Z,9.10
2019-05-16T06:05:06.818Z,9.10
2019-05-16T06:07:12.383Z,9.10
2019-05-16T06:09:26.122Z,9.10
2019-05-16T06:11:25.033Z,9.20
2019-05-16T06:13:31.162Z,9.20
2019-05-16T06:15:36.779Z,9.30
2019-05-16T06:17:42.363Z,9.30
2019-05-16T06:19:49.783Z,9.30
2019-05-16T06:21:55.103Z,9.30
2019-05-16T06:24:00.630Z,9.30
2019-05-16T06:26:06.400Z,9.30
2019-05-16T06:28:11.897Z,9.30
2019-05-16T06:30:17.569Z,9.20
2019-05-16T06:32:23.175Z,9.30
2019-05-16T06:34:30.151Z,9.40
2019-05-16T06:36:35.803Z,9.40
2019-05-16T06:38:41.393Z,9.60
2019-05-16T06:40:49.835Z,9.60
2019-05-16T06:42:54.120Z,9.60
2019-05-16T06:45:00.859Z,9.60
2019-05-16T06:47:16.886Z,9.60
2019-05-16T06:49:13.829Z,9.60
2019-05-16T06:51:20.040Z,9.70
2019-05-16T06:53:25.751Z,9.80
2019-05-16T06:55:31.284Z,9.80
2019-05-16T06:57:36.891Z,9.80
2019-05-16T06:59:42.493Z,9.80
2019-05-16T07:01:50.036Z,9.80
2019-05-16T07:03:55.308Z,9.80
2019-05-16T07:06:01.133Z,9.80
2019-05-16T07:08:06.863Z,9.70
2019-05-16T07:10:13.124Z,9.70
2019-05-16T07:12:20.245Z,9.70
2019-05-16T07:14:28.272Z,9.70
2019-05-16T07:16:33.436Z,9.90
2019-05-16T07:18:40.231Z,9.80
2019-05-16T07:20:46.044Z,9.80
2019-05-16T07:22:51.615Z,9.90
2019-05-16T07:24:57.225Z,9.90
2019-05-16T07:27:02.749Z,9.90
2019-05-16T07:29:10.785Z,10.00
2019-05-16T07:31:18.731Z,10.00
2019-05-16T07:33:22.826Z,10.00
2019-05-16T07:35:30.666Z,10.00
2019-05-16T07:37:35.743Z,10.00
2019-05-16T07:39:41.997Z,10.10
2019-05-16T07:41:47.542Z,10.20
2019-05-16T07:43:53.074Z,10.20
2019-05-16T07:46:00.422Z,10.30
2019-05-16T07:48:05.822Z,10.30
2019-05-16T07:50:11.770Z,10.30
2019-05-16T07:52:20.630Z,10.20
2019-05-16T07:54:24.441Z,10.20
2019-05-16T07:56:31.337Z,10.20
2019-05-16T07:58:36.841Z,10.30
2019-05-16T08:00:52.415Z,10.30
2019-05-16T08:02:50.620Z,10.30
2019-05-16T08:04:57.376Z,10.30
2019-05-16T08:07:05.644Z,10.30
2019-05-16T08:09:12.738Z,10.30
2019-05-16T08:11:17.565Z,10.40
2019-05-16T08:13:23.100Z,10.50
2019-05-16T08:15:30.380Z,10.50
2019-05-16T08:17:36.030Z,10.50
2019-05-16T08:19:41.552Z,10.40
2019-05-16T08:21:47.076Z,10.50
2019-05-16T08:23:52.601Z,10.60
2019-05-16T08:26:00.914Z,10.60
2019-05-16T08:28:05.463Z,10.70
2019-05-16T08:30:11.380Z,10.80
2019-05-16T08:32:16.913Z,11.00
2019-05-16T08:34:22.524Z,11.00
2019-05-16T08:36:30.725Z,10.90
2019-05-16T08:38:35.320Z,10.90
2019-05-16T08:41:01.074Z,10.90
2019-05-16T08:42:51.601Z,10.90
2019-05-16T08:44:55.124Z,10.90
2019-05-16T08:47:06.118Z,11.00
2019-05-16T08:49:07.785Z,11.00
2019-05-16T08:51:13.312Z,10.90
2019-05-16T08:53:21.497Z,10.80
2019-05-16T08:55:26.116Z,10.70
2019-05-16T08:57:33.908Z,10.70
2019-05-16T08:59:40.964Z,10.70
2019-05-16T09:01:53.419Z,10.60
2019-05-16T09:03:54.137Z,10.60
2019-05-16T09:06:03.006Z,10.60
2019-05-16T09:08:06.806Z,10.80
2019-05-16T09:10:50.326Z,10.80
2019-05-16T09:12:19.736Z,10.90
2019-05-16T09:14:27.656Z,11.00
2019-05-16T09:16:32.813Z,11.00
2019-05-16T09:18:41.278Z,10.90
2019-05-16T09:20:45.580Z,10.90
2019-05-16T09:22:51.243Z,11.00
2019-05-16T09:24:57.632Z,10.90
2019-05-16T09:27:04.050Z,10.90
2019-05-16T09:29:11.127Z,10.90
2019-05-16T09:31:17.825Z,11.00
2019-05-16T09:33:23.656Z,10.90
2019-05-16T09:35:29.256Z,11.10
2019-05-16T09:37:37.370Z,11.10
2019-05-16T09:39:42.005Z,11.00
2019-05-16T09:41:54.466Z,11.10
2019-05-16T09:43:54.758Z,11.10
2019-05-16T09:46:03.999Z,11.30
2019-05-16T09:48:08.247Z,11.40
2019-05-16T09:50:14.647Z,11.30
2019-05-16T09:52:22.866Z,11.30
2019-05-16T09:54:28.404Z,11.30
2019-05-16T09:56:33.985Z,11.30
2019-05-16T09:58:39.501Z,11.40
2019-05-16T10:00:47.274Z,11.40
2019-05-16T10:02:52.296Z,11.40
2019-05-16T10:04:58.217Z,11.40
2019-05-16T10:07:06.504Z,11.30
2019-05-16T10:09:10.984Z,11.30
2019-05-16T10:11:18.165Z,11.20
2019-05-16T10:13:23.906Z,11.20
2019-05-16T10:15:29.497Z,11.30
2019-05-16T10:17:36.960Z,11.40
2019-05-16T10:19:42.212Z,11.40
2019-05-16T10:21:47.729Z,11.50
2019-05-16T10:23:53.316Z,11.60
2019-05-16T10:25:58.911Z,11.70
2019-05-16T10:28:05.623Z,11.90
2019-05-16T10:30:12.880Z,11.90
2019-05-16T10:32:18.458Z,12.00
2019-05-16T10:34:23.977Z,12.00
2019-05-16T10:36:29.569Z,12.10
2019-05-16T10:38:37.465Z,12.20
2019-05-16T10:40:42.241Z,12.20
2019-05-16T10:42:47.972Z,12.20
2019-05-16T10:44:53.558Z,12.20
2019-05-16T10:46:59.097Z,12.20
2019-05-16T10:49:04.664Z,12.10
2019-05-16T10:51:10.308Z,11.90
2019-05-16T10:53:33.618Z,11.90
2019-05-16T10:55:23.228Z,12.00
2019-05-16T10:57:29.948Z,12.00
2019-05-16T10:59:57.801Z,11.90
2019-05-16T11:01:42.971Z,12.00
2019-05-16T11:03:49.250Z,11.90
2019-05-16T11:06:02.876Z,11.80
2019-05-16T11:08:02.233Z,11.90
2019-05-16T11:10:08.056Z,12.00
2019-05-16T11:12:13.700Z,12.10
2019-05-16T11:14:19.250Z,12.10
2019-05-16T11:16:27.226Z,12.20
2019-05-16T11:18:31.905Z,12.10
2019-05-16T11:20:37.786Z,12.00
2019-05-16T11:22:43.290Z,12.00
2019-05-16T11:24:48.888Z,12.00
2019-05-16T11:26:56.670Z,12.10
2019-05-16T11:29:01.708Z,12.20
2019-05-16T11:31:07.794Z,12.20
2019-05-16T11:33:13.491Z,12.20
2019-05-16T11:35:21.516Z,12.20
2019-05-16T11:37:27.915Z,12.20
2019-05-16T11:39:33.646Z,12.40
2019-05-16T11:41:39.160Z,12.40
2019-05-16T11:43:44.678Z,12.30
2019-05-16T11:45:50.301Z,12.30
2019-05-16T11:47:56.815Z,12.20
2019-05-16T11:50:07.212Z,12.20
2019-05-16T11:52:13.812Z,12.30
2019-05-16T11:54:19.426Z,12.40
2019-05-16T11:56:24.951Z,12.50
2019-05-16T11:58:30.475Z,12.50
2019-05-16T12:00:37.252Z,12.70
2019-05-16T12:02:43.143Z,12.80
2019-05-16T12:04:49.572Z,12.80
2019-05-16T12:06:57.300Z,12.90
2019-05-16T12:09:02.317Z,13.00
2019-05-16T12:11:09.032Z,13.10
2019-05-16T12:13:25.345Z,13.00
2019-05-16T12:15:22.477Z,13.00
2019-05-16T12:17:28.166Z,12.90
2019-05-16T12:19:37.710Z,12.80
2019-05-16T12:21:41.808Z,12.90
2019-05-16T12:23:47.442Z,13.10
2019-05-16T12:25:53.041Z,13.00
2019-05-16T12:27:58.692Z,13.10
2019-05-16T12:30:12.974Z,13.20
2019-05-16T12:32:14.218Z,13.30
2019-05-16T12:34:19.737Z,13.30
2019-05-16T12:36:26.768Z,13.20
2019-05-16T12:38:32.417Z,13.10
2019-05-16T12:40:37.946Z,13.10
2019-05-16T12:42:54.453Z,13.20
2019-05-16T12:45:00.337Z,13.20
2019-05-16T12:47:07.617Z,13.30
2019-05-16T12:49:13.083Z,13.40
2019-05-16T12:51:18.588Z,13.30
2019-05-16T12:53:32.291Z,13.30
2019-05-16T12:55:39.793Z,13.40
2019-05-16T12:57:48.496Z,13.60
2019-05-16T12:59:52.767Z,13.60
2019-05-16T13:01:58.341Z,13.60
2019-05-16T13:04:18.980Z,13.60
2019-05-16T13:06:23.874Z,13.70
2019-05-16T13:08:29.489Z,13.50
2019-05-16T13:10:37.734Z,13.50
2019-05-16T13:12:42.382Z,13.50
2019-05-16T13:14:47.955Z,13.40
2019-05-16T13:16:53.522Z,13.50
2019-05-16T13:18:59.035Z,13.60
2019-05-16T13:21:06.663Z,13.70
2019-05-16T13:23:14.290Z,13.80
2019-05-16T13:25:19.237Z,13.70
2019-05-16T13:27:24.859Z,13.70
2019-05-16T13:29:30.444Z,13.70
2019-05-16T13:31:37.817Z,13.60
2019-05-16T13:33:43.383Z,13.50
2019-05-16T13:35:48.897Z,13.40
2019-05-16T13:37:54.495Z,13.30
2019-05-16T13:40:00.054Z,13.40
2019-05-16T13:42:07.980Z,13.40
2019-05-16T13:44:18.868Z,13.40
2019-05-16T13:46:20.089Z,13.50
2019-05-16T13:48:26.760Z,13.50
2019-05-16T13:50:32.385Z,13.50
2019-05-16T13:52:38.003Z,13.60
2019-05-16T13:54:43.664Z,13.70
2019-05-16T13:56:49.257Z,13.60
2019-05-16T13:58:57.024Z,13.50
2019-05-16T14:01:02.123Z,13.60
2019-05-16T14:03:07.979Z,13.50
2019-05-16T14:05:14.137Z,13.70
2019-05-16T14:07:19.719Z,13.50
2019-05-16T14:09:26.862Z,13.50
2019-05-16T14:11:32.553Z,13.50
2019-05-16T14:13:38.216Z,13.50
2019-05-16T14:15:43.793Z,13.50
2019-05-16T14:17:49.375Z,13.50
2019-05-16T14:19:57.152Z,13.50
2019-05-16T14:22:02.042Z,13.50
2019-05-16T14:24:08.696Z,13.50
2019-05-16T14:26:14.313Z,13.60
2019-05-16T14:28:19.835Z,13.50
2019-05-16T14:30:28.302Z,13.50
2019-05-16T14:32:32.647Z,13.50
2019-05-16T14:34:38.722Z,13.60
2019-05-16T14:36:47.129Z,13.50
2019-05-16T14:38:51.607Z,13.40
2019-05-16T14:40:57.513Z,13.50
2019-05-16T14:43:03.111Z,13.60
2019-05-16T14:45:21.491Z,13.50
2019-05-16T14:47:27.350Z,13.50
2019-05-16T14:49:32.882Z,13.50
2019-05-16T14:51:38.845Z,13.60
2019-05-16T14:53:46.892Z,13.60
2019-05-16T14:55:51.627Z,13.70
2019-05-16T14:57:57.153Z,13.60
2019-05-16T15:00:02.745Z,13.60
2019-05-16T15:02:08.761Z,13.60
2019-05-16T15:04:14.281Z,13.70
2019-05-16T15:06:19.789Z,13.70
2019-05-16T15:08:25.324Z,13.60
2019-05-16T15:10:30.908Z,13.70
2019-05-16T15:12:37.630Z,13.80
2019-05-16T15:14:43.377Z,13.80
2019-05-16T15:16:51.847Z,13.80
2019-05-16T15:18:57.528Z,14.00
2019-05-16T15:21:03.249Z,13.90
2019-05-16T15:23:08.753Z,13.90
2019-05-16T15:25:14.419Z,13.90
2019-05-16T15:27:21.548Z,13.90
2019-05-16T15:29:27.100Z,13.90
2019-05-16T15:31:32.743Z,13.80
2019-05-16T15:33:38.426Z,13.80
2019-05-16T15:35:43.952Z,13.80
2019-05-16T15:37:49.468Z,13.90
2019-05-16T15:39:55.020Z,13.80
2019-05-16T15:42:00.532Z,13.80
2019-05-16T15:44:07.858Z,13.70
2019-05-16T15:46:13.548Z,13.60
2019-05-16T15:48:19.181Z,13.50
2019-05-16T15:50:27.928Z,13.60
2019-05-16T15:52:32.778Z,13.60
2019-05-16T15:54:40.338Z,13.50
2019-05-16T15:56:48.358Z,13.60
2019-05-16T15:58:53.953Z,13.60
2019-05-16T16:00:59.482Z,13.50
2019-05-16T16:03:07.025Z,13.50
2019-05-16T16:05:12.281Z,13.60
2019-05-16T16:07:18.253Z,13.70
2019-05-16T16:09:24.039Z,13.80
2019-05-16T16:11:31.352Z,13.80
2019-05-16T16:13:37.338Z,13.80
2019-05-16T16:15:53.217Z,13.70
2019-05-16T16:17:50.608Z,13.80
2019-05-16T16:19:57.912Z,13.90
2019-05-16T16:22:03.403Z,13.90
2019-05-16T16:24:09.418Z,13.80
2019-05-16T16:26:17.490Z,13.70
2019-05-16T16:28:22.340Z,13.70
2019-05-16T16:30:28.000Z,13.70
2019-05-16T16:32:33.603Z,13.70
2019-05-16T16:34:39.118Z,13.70
2019-05-16T16:36:46.974Z,13.70
2019-05-16T16:38:51.801Z,13.80
2019-05-16T16:40:57.567Z,13.80
2019-05-16T16:43:03.100Z,13.80
2019-05-16T16:45:10.176Z,13.80
2019-05-16T16:47:17.636Z,13.70
2019-05-16T16:49:22.917Z,13.80
2019-05-16T16:51:28.569Z,13.70
2019-05-16T16:53:34.084Z,13.70
2019-05-16T16:55:39.681Z,13.60
2019-05-16T16:57:47.215Z,13.70
2019-05-16T16:59:52.326Z,13.60
2019-05-16T17:01:57.876Z,13.50
2019-05-16T17:04:03.600Z,13.40
2019-05-16T17:06:09.145Z,13.50
2019-05-16T17:08:16.817Z,13.50
2019-05-16T17:10:21.905Z,13.50
2019-05-16T17:12:27.454Z,13.50
2019-05-16T17:14:32.960Z,13.50
2019-05-16T17:16:38.537Z,13.50
2019-05-16T17:18:44.057Z,13.50
2019-05-16T17:20:49.724Z,13.50
2019-05-16T17:22:57.163Z,13.40
2019-05-16T17:25:02.712Z,13.40
2019-05-16T17:27:09.365Z,13.40
2019-05-16T17:29:17.013Z,13.40
2019-05-16T17:31:22.338Z,13.40
2019-05-16T17:33:28.613Z,13.30
2019-05-16T17:35:38.569Z,13.30
2019-05-16T17:37:42.917Z,13.30
2019-05-16T17:39:48.444Z,13.20
2019-05-16T17:41:54.939Z,13.20
2019-05-16T17:44:01.219Z,13.10
2019-05-16T17:46:07.317Z,13.10
2019-05-16T17:48:13.897Z,13.00
2019-05-16T17:50:20.236Z,13.00
2019-05-16T17:52:27.332Z,13.00
2019-05-16T17:54:32.997Z,13.00
2019-05-16T17:56:38.532Z,12.80
2019-05-16T17:58:44.156Z,12.80
2019-05-16T18:00:49.880Z,12.80
2019-05-16T18:02:57.000Z,12.70
2019-05-16T18:05:07.420Z,12.70
2019-05-16T18:07:13.229Z,12.70
2019-05-16T18:09:18.825Z,12.70
2019-05-16T18:11:27.624Z,12.60
2019-05-16T18:13:33.128Z,12.60
2019-05-16T18:15:38.669Z,12.60
2019-05-16T18:17:44.237Z,12.50
2019-05-16T18:19:49.756Z,12.50
2019-05-16T18:21:57.098Z,12.50
2019-05-16T18:24:02.502Z,12.40
2019-05-16T18:26:08.085Z,12.40
2019-05-16T18:28:13.750Z,12.40
2019-05-16T18:30:22.368Z,12.40
2019-05-16T18:32:27.911Z,12.40
2019-05-16T18:34:33.444Z,12.40
2019-05-16T18:36:39.142Z,12.40
2019-05-16T18:38:46.681Z,12.40
2019-05-16T18:40:52.058Z,12.30
2019-05-16T18:42:57.608Z,12.30
2019-05-16T18:45:08.114Z,12.30
2019-05-16T18:47:13.693Z,12.30
2019-05-16T18:49:20.313Z,12.30
2019-05-16T18:51:26.505Z,12.30
2019-05-16T18:53:32.372Z,12.30
2019-05-16T18:55:37.982Z,12.30
2019-05-16T18:57:47.040Z,12.20
2019-05-16T18:59:52.081Z,12.30
2019-05-16T19:01:57.695Z,12.20
2019-05-16T19:04:03.383Z,12.20
2019-05-16T19:06:08.917Z,12.20
2019-05-16T19:08:16.357Z,12.20
2019-05-16T19:10:22.152Z,12.20
2019-05-16T19:12:27.668Z,12.20
2019-05-16T19:14:33.308Z,12.10
2019-05-16T19:16:38.838Z,12.10
2019-05-16T19:18:44.450Z,12.10
2019-05-16T19:20:50.070Z,12.10
2019-05-16T19:22:58.908Z,12.10
2019-05-16T19:25:03.034Z,12.10
2019-05-16T19:27:08.636Z,12.10
2019-05-16T19:29:14.177Z,12.10
2019-05-16T19:31:19.781Z,12.10
2019-05-16T19:33:25.328Z,12.10
2019-05-16T19:35:30.861Z,12.10
2019-05-16T19:37:40.455Z,12.10
2019-05-16T19:39:43.745Z,12.10
2019-05-16T19:41:54.259Z,12.10
2019-05-16T19:44:02.541Z,12.10
2019-05-16T19:46:08.069Z,12.10
2019-05-16T19:48:13.671Z,12.20
2019-05-16T19:50:19.544Z,12.10
2019-05-16T19:52:26.976Z,12.20
2019-05-16T19:54:32.408Z,12.20
2019-05-16T19:56:38.009Z,12.10
2019-05-16T19:58:43.613Z,12.10
2019-05-16T20:00:50.326Z,12.00
2019-05-16T20:02:56.878Z,12.00
2019-05-16T20:05:02.706Z,12.00
2019-05-16T20:07:08.352Z,12.00
2019-05-16T20:09:16.495Z,11.90
2019-05-16T20:11:21.188Z,11.90
2019-05-16T20:13:27.436Z,11.80
2019-05-16T20:15:33.317Z,11.80
2019-05-16T20:17:50.883Z,11.80
2019-05-16T20:19:47.072Z,11.70
2019-05-16T20:21:52.712Z,11.70
2019-05-16T20:23:58.308Z,11.70
2019-05-16T20:26:04.038Z,11.70
2019-05-16T20:28:09.575Z,11.80
2019-05-16T20:30:17.073Z,11.80
2019-05-16T20:32:22.857Z,11.80
2019-05-16T20:34:28.392Z,11.80
2019-05-16T20:36:33.924Z,11.80
2019-05-16T20:38:39.444Z,11.80
2019-05-16T20:40:46.624Z,11.80
2019-05-16T20:42:52.365Z,11.80
2019-05-16T20:44:57.885Z,11.80
2019-05-16T20:47:03.409Z,11.80
2019-05-16T20:49:08.951Z,11.80
2019-05-16T20:51:16.569Z,11.80
2019-05-16T20:53:21.745Z,11.70
2019-05-16T20:55:27.382Z,11.70
2019-05-16T20:57:32.886Z,11.80
2019-05-16T20:59:38.400Z,11.80
2019-05-16T21:01:44.068Z,11.80
2019-05-16T21:03:49.657Z,11.80
2019-05-16T21:05:57.872Z,11.70
2019-05-16T21:08:02.347Z,11.70
2019-05-16T21:10:08.726Z,11.70
2019-05-16T21:12:14.252Z,11.60
2019-05-16T21:14:19.864Z,11.70
2019-05-16T21:16:26.985Z,11.70
2019-05-16T21:18:32.802Z,11.70
2019-05-16T21:20:38.997Z,11.70
2019-05-16T21:22:47.023Z,11.70
2019-05-16T21:24:51.806Z,11.70
2019-05-16T21:26:57.405Z,11.70
2019-05-16T21:29:03.176Z,11.70
2019-05-16T21:31:08.940Z,11.60
2019-05-16T21:33:16.538Z,11.60
2019-05-16T21:35:21.729Z,11.60
2019-05-16T21:37:27.342Z,11.60
2019-05-16T21:39:32.942Z,11.50
2019-05-16T21:41:38.537Z,11.60
2019-05-16T21:43:44.048Z,11.60
2019-05-16T21:45:49.648Z,11.50
2019-05-16T21:47:56.855Z,11.50
2019-05-16T21:50:02.467Z,11.50
2019-05-16T21:52:08.371Z,11.50
2019-05-16T21:54:13.957Z,11.50
2019-05-16T21:56:19.481Z,11.50
2019-05-16T21:58:26.741Z,11.50
2019-05-16T22:00:44.365Z,11.50
2019-05-16T22:02:50.569Z,11.50
2019-05-16T22:04:56.855Z,11.50
2019-05-16T22:07:03.391Z,11.50
2019-05-16T22:09:09.328Z,11.50
2019-05-16T22:11:17.209Z,11.60
2019-05-16T22:13:24.847Z,11.60
2019-05-16T22:15:32.416Z,11.60
2019-05-16T22:17:38.053Z,11.60
2019-05-16T22:19:43.642Z,11.50
2019-05-16T22:21:49.219Z,11.50
2019-05-16T22:23:56.986Z,11.60
2019-05-16T22:26:02.102Z,11.60
2019-05-16T22:28:07.645Z,11.60
2019-05-16T22:30:16.488Z,11.60
2019-05-16T22:32:22.152Z,11.60
2019-05-16T22:34:27.672Z,11.60
2019-05-16T22:36:33.244Z,11.50
2019-05-16T22:38:38.766Z,11.50
2019-05-16T22:40:44.277Z,11.60
2019-05-16T22:42:49.821Z,11.60
2019-05-16T22:44:55.407Z,11.60
2019-05-16T22:47:00.930Z,11.60
2019-05-16T22:49:07.568Z,11.50
2019-05-16T22:51:13.428Z,11.50
2019-05-16T22:53:18.948Z,11.50
2019-05-16T22:55:26.477Z,11.50
2019-05-16T22:57:31.785Z,11.60
2019-05-16T22:59:37.305Z,11.50
2019-05-16T23:01:42.849Z,11.50
2019-05-16T23:03:48.375Z,11.60
2019-05-16T23:05:56.398Z,11.50
2019-05-16T23:08:05.883Z,11.50
2019-05-16T23:10:08.512Z,11.50
2019-05-16T23:12:14.181Z,11.50
2019-05-16T23:14:19.716Z,11.60
2019-05-16T23:16:26.697Z,11.60
2019-05-16T23:18:32.294Z,11.60
2019-05-16T23:20:38.895Z,11.50
2019-05-16T23:22:46.811Z,11.50
2019-05-16T23:24:51.549Z,11.40
2019-05-16T23:26:57.083Z,11.40
2019-05-16T23:29:02.604Z,11.30
2019-05-16T23:31:08.204Z,11.30
2019-05-16T23:33:13.748Z,11.30
2019-05-16T23:35:19.278Z,11.20
2019-05-16T23:37:27.280Z,11.20
2019-05-16T23:39:32.019Z,11.20
2019-05-16T23:41:37.545Z,11.20
2019-05-16T23:43:43.044Z,11.20
2019-05-16T23:45:48.598Z,11.20
2019-05-16T23:47:56.275Z,11.20
2019-05-16T23:50:01.460Z,11.20
2019-05-16T23:52:07.582Z,11.20
2019-05-16T23:54:13.364Z,11.20
2019-05-16T23:56:19.969Z,11.20
2019-05-16T23:58:25.656Z,11.10
